sensor_id;sensor_type;location;lat;lon;timestamp;temperature;humidity
46752;DHT22;32497;48.936;9.270;2022-08-19T00:01:32;21.50;67.10
46752;DHT22;32497;48.936;9.270;2022-08-19T00:06:35;21.50;67.40
46752;DHT22;32497;48.936;9.270;2022-08-19T00:11:38;21.70;67.30
46752;DHT22;32497;48.936;9.270;2022-08-19T00:16:40;21.50;66.70
46752;DHT22;32497;48.936;9.270;2022-08-19T00:21:41;21.40;67.80
46752;DHT22;32497;48.936;9.270;2022-08-19T00:26:44;21.40;67.20
46752;DHT22;32497;48.936;9.270;2022-08-19T00:31:46;21.40;67.00
46752;DHT22;32497;48.936;9.270;2022-08-19T00:36:48;21.40;67.60
46752;DHT22;32497;48.936;9.270;2022-08-19T00:41:51;21.20;68.00
46752;DHT22;32497;48.936;9.270;2022-08-19T00:46:53;21.00;69.10
46752;DHT22;32497;48.936;9.270;2022-08-19T00:51:58;21.10;68.90
46752;DHT22;32497;48.936;9.270;2022-08-19T00:57:04;21.20;68.80
46752;DHT22;32497;48.936;9.270;2022-08-19T01:02:07;21.20;68.40
46752;DHT22;32497;48.936;9.270;2022-08-19T01:07:08;21.30;68.70
46752;DHT22;32497;48.936;9.270;2022-08-19T01:12:11;21.20;68.70
46752;DHT22;32497;48.936;9.270;2022-08-19T01:17:12;21.20;68.90
46752;DHT22;32497;48.936;9.270;2022-08-19T01:22:18;21.20;68.80
46752;DHT22;32497;48.936;9.270;2022-08-19T01:27:21;21.10;69.10
46752;DHT22;32497;48.936;9.270;2022-08-19T01:32:22;21.20;69.30
46752;DHT22;32497;48.936;9.270;2022-08-19T01:37:23;21.00;69.30
46752;DHT22;32497;48.936;9.270;2022-08-19T01:42:26;21.00;70.00
46752;DHT22;32497;48.936;9.270;2022-08-19T01:47:27;20.90;70.40
46752;DHT22;32497;48.936;9.270;2022-08-19T01:52:29;20.90;70.40
46752;DHT22;32497;48.936;9.270;2022-08-19T01:57:31;20.90;70.70
46752;DHT22;32497;48.936;9.270;2022-08-19T02:02:33;20.90;71.00
46752;DHT22;32497;48.936;9.270;2022-08-19T02:07:34;20.90;70.70
46752;DHT22;32497;48.936;9.270;2022-08-19T02:12:36;20.80;70.80
46752;DHT22;32497;48.936;9.270;2022-08-19T02:17:38;20.80;71.20
46752;DHT22;32497;48.936;9.270;2022-08-19T02:22:40;20.80;71.80
46752;DHT22;32497;48.936;9.270;2022-08-19T02:27:43;20.70;71.50
46752;DHT22;32497;48.936;9.270;2022-08-19T02:32:44;20.70;71.50
46752;DHT22;32497;48.936;9.270;2022-08-19T02:37:45;20.70;71.60
46752;DHT22;32497;48.936;9.270;2022-08-19T02:42:47;20.50;72.30
46752;DHT22;32497;48.936;9.270;2022-08-19T02:47:48;20.50;72.00
46752;DHT22;32497;48.936;9.270;2022-08-19T02:52:49;20.40;72.40
46752;DHT22;32497;48.936;9.270;2022-08-19T02:57:52;20.40;72.50
46752;DHT22;32497;48.936;9.270;2022-08-19T03:02:53;20.40;72.80
46752;DHT22;32497;48.936;9.270;2022-08-19T03:07:54;20.50;72.80
46752;DHT22;32497;48.936;9.270;2022-08-19T03:12:56;20.50;72.80
46752;DHT22;32497;48.936;9.270;2022-08-19T03:17:57;20.50;72.40
46752;DHT22;32497;48.936;9.270;2022-08-19T03:22:58;20.40;72.60
46752;DHT22;32497;48.936;9.270;2022-08-19T03:28:01;20.30;73.30
46752;DHT22;32497;48.936;9.270;2022-08-19T03:33:02;20.30;73.10
46752;DHT22;32497;48.936;9.270;2022-08-19T03:38:03;20.20;73.50
46752;DHT22;32497;48.936;9.270;2022-08-19T03:43:05;20.20;73.80
46752;DHT22;32497;48.936;9.270;2022-08-19T03:48:06;20.30;73.30
46752;DHT22;32497;48.936;9.270;2022-08-19T03:53:07;20.30;73.10
46752;DHT22;32497;48.936;9.270;2022-08-19T03:58:10;20.30;73.40
46752;DHT22;32497;48.936;9.270;2022-08-19T04:03:11;20.20;73.30
46752;DHT22;32497;48.936;9.270;2022-08-19T04:08:12;20.10;73.40
46752;DHT22;32497;48.936;9.270;2022-08-19T04:13:16;20.10;74.10
46752;DHT22;32497;48.936;9.270;2022-08-19T04:18:17;20.10;74.30
46752;DHT22;32497;48.936;9.270;2022-08-19T04:23:18;20.20;73.90
46752;DHT22;32497;48.936;9.270;2022-08-19T04:28:21;20.10;74.00
46752;DHT22;32497;48.936;9.270;2022-08-19T04:33:24;20.20;73.80
46752;DHT22;32497;48.936;9.270;2022-08-19T04:38:25;20.00;73.90
46752;DHT22;32497;48.936;9.270;2022-08-19T04:43:28;20.10;74.30
46752;DHT22;32497;48.936;9.270;2022-08-19T04:48:29;20.00;74.00
46752;DHT22;32497;48.936;9.270;2022-08-19T04:53:32;20.00;74.00
46752;DHT22;32497;48.936;9.270;2022-08-19T04:58:36;20.00;73.90
46752;DHT22;32497;48.936;9.270;2022-08-19T05:03:37;20.10;73.70
46752;DHT22;32497;48.936;9.270;2022-08-19T05:08:40;20.00;74.10
46752;DHT22;32497;48.936;9.270;2022-08-19T05:13:44;20.10;74.50
46752;DHT22;32497;48.936;9.270;2022-08-19T05:18:45;20.20;73.80
46752;DHT22;32497;48.936;9.270;2022-08-19T05:23:46;20.20;74.00
46752;DHT22;32497;48.936;9.270;2022-08-19T05:28:48;20.30;73.60
46752;DHT22;32497;48.936;9.270;2022-08-19T05:33:49;20.30;73.70
46752;DHT22;32497;48.936;9.270;2022-08-19T05:38:50;20.40;73.10
46752;DHT22;32497;48.936;9.270;2022-08-19T05:43:53;20.40;73.10
46752;DHT22;32497;48.936;9.270;2022-08-19T05:48:54;20.30;72.90
46752;DHT22;32497;48.936;9.270;2022-08-19T05:53:55;20.30;73.00
46752;DHT22;32497;48.936;9.270;2022-08-19T05:58:58;20.40;73.40
46752;DHT22;32497;48.936;9.270;2022-08-19T06:03:59;20.40;73.60
46752;DHT22;32497;48.936;9.270;2022-08-19T06:09:01;20.40;74.10
46752;DHT22;32497;48.936;9.270;2022-08-19T06:14:05;20.30;74.00
46752;DHT22;32497;48.936;9.270;2022-08-19T06:19:12;20.30;73.60
46752;DHT22;32497;48.936;9.270;2022-08-19T06:24:15;20.50;73.20
46752;DHT22;32497;48.936;9.270;2022-08-19T06:29:19;20.60;72.80
46752;DHT22;32497;48.936;9.270;2022-08-19T06:34:21;20.70;73.00
46752;DHT22;32497;48.936;9.270;2022-08-19T06:39:26;20.70;72.80
46752;DHT22;32497;48.936;9.270;2022-08-19T06:44:30;20.70;72.70
46752;DHT22;32497;48.936;9.270;2022-08-19T06:49:32;20.80;73.00
46752;DHT22;32497;48.936;9.270;2022-08-19T06:54:33;21.10;72.80
46752;DHT22;32497;48.936;9.270;2022-08-19T06:59:36;21.40;70.40
46752;DHT22;32497;48.936;9.270;2022-08-19T07:04:38;21.50;70.60
46752;DHT22;32497;48.936;9.270;2022-08-19T07:09:41;21.50;69.90
46752;DHT22;32497;48.936;9.270;2022-08-19T07:14:43;21.40;73.40
46752;DHT22;32497;48.936;9.270;2022-08-19T07:19:45;21.40;73.60
46752;DHT22;32497;48.936;9.270;2022-08-19T07:24:46;21.30;74.20
46752;DHT22;32497;48.936;9.270;2022-08-19T07:29:48;21.20;71.50
46752;DHT22;32497;48.936;9.270;2022-08-19T07:34:49;20.80;73.50
46752;DHT22;32497;48.936;9.270;2022-08-19T07:39:50;20.70;74.10
46752;DHT22;32497;48.936;9.270;2022-08-19T07:44:53;20.60;74.40
46752;DHT22;32497;48.936;9.270;2022-08-19T07:49:54;20.60;73.60
46752;DHT22;32497;48.936;9.270;2022-08-19T07:54:55;20.70;74.70
46752;DHT22;32497;48.936;9.270;2022-08-19T07:59:58;20.70;73.10
46752;DHT22;32497;48.936;9.270;2022-08-19T08:04:59;20.60;73.80
46752;DHT22;32497;48.936;9.270;2022-08-19T08:10:00;20.60;73.00
46752;DHT22;32497;48.936;9.270;2022-08-19T08:15:06;20.60;73.50
46752;DHT22;32497;48.936;9.270;2022-08-19T08:20:08;20.60;73.20
46752;DHT22;32497;48.936;9.270;2022-08-19T08:25:13;20.70;72.70
46752;DHT22;32497;48.936;9.270;2022-08-19T08:30:18;20.80;73.70
46752;DHT22;32497;48.936;9.270;2022-08-19T08:35:22;20.90;73.30
46752;DHT22;32497;48.936;9.270;2022-08-19T08:40:28;21.20;72.20
46752;DHT22;32497;48.936;9.270;2022-08-19T08:45:32;21.40;70.90
46752;DHT22;32497;48.936;9.270;2022-08-19T08:50:40;21.60;70.40
46752;DHT22;32497;48.936;9.270;2022-08-19T08:55:43;21.40;70.60
46752;DHT22;32497;48.936;9.270;2022-08-19T09:00:48;21.40;71.40
46752;DHT22;32497;48.936;9.270;2022-08-19T09:05:57;21.50;71.50
46752;DHT22;32497;48.936;9.270;2022-08-19T09:11:03;21.60;71.50
46752;DHT22;32497;48.936;9.270;2022-08-19T09:16:08;21.80;70.00
46752;DHT22;32497;48.936;9.270;2022-08-19T09:21:11;21.80;69.90
46752;DHT22;32497;48.936;9.270;2022-08-19T09:26:13;21.90;70.40
46752;DHT22;32497;48.936;9.270;2022-08-19T09:31:18;21.80;70.40
46752;DHT22;32497;48.936;9.270;2022-08-19T09:36:21;21.80;71.00
46752;DHT22;32497;48.936;9.270;2022-08-19T09:41:24;21.70;71.50
46752;DHT22;32497;48.936;9.270;2022-08-19T09:46:28;21.60;72.00
46752;DHT22;32497;48.936;9.270;2022-08-19T09:51:29;21.60;71.60
46752;DHT22;32497;48.936;9.270;2022-08-19T09:56:31;21.70;71.50
46752;DHT22;32497;48.936;9.270;2022-08-19T10:01:33;21.70;71.50
46752;DHT22;32497;48.936;9.270;2022-08-19T10:06:37;21.80;71.40
46752;DHT22;32497;48.936;9.270;2022-08-19T10:11:40;21.80;71.60
46752;DHT22;32497;48.936;9.270;2022-08-19T10:16:42;21.90;71.70
46752;DHT22;32497;48.936;9.270;2022-08-19T10:21:43;21.90;72.10
46752;DHT22;32497;48.936;9.270;2022-08-19T10:26:45;21.90;72.30
46752;DHT22;32497;48.936;9.270;2022-08-19T10:31:47;21.90;71.70
46752;DHT22;32497;48.936;9.270;2022-08-19T10:36:48;22.00;71.80
46752;DHT22;32497;48.936;9.270;2022-08-19T10:41:49;22.20;70.50
46752;DHT22;32497;48.936;9.270;2022-08-19T10:46:51;22.60;69.70
46752;DHT22;32497;48.936;9.270;2022-08-19T10:51:52;22.90;68.20
46752;DHT22;32497;48.936;9.270;2022-08-19T10:56:53;23.00;68.10
46752;DHT22;32497;48.936;9.270;2022-08-19T11:01:59;23.20;65.80
46752;DHT22;32497;48.936;9.270;2022-08-19T11:07:00;23.40;67.20
46752;DHT22;32497;48.936;9.270;2022-08-19T11:12:02;23.60;65.30
46752;DHT22;32497;48.936;9.270;2022-08-19T11:17:05;23.60;65.40
46752;DHT22;32497;48.936;9.270;2022-08-19T11:22:07;23.70;64.50
46752;DHT22;32497;48.936;9.270;2022-08-19T11:27:09;23.90;63.10
46752;DHT22;32497;48.936;9.270;2022-08-19T11:32:12;23.90;62.90
46752;DHT22;32497;48.936;9.270;2022-08-19T11:37:13;24.00;61.70
46752;DHT22;32497;48.936;9.270;2022-08-19T11:42:14;24.20;60.60
46752;DHT22;32497;48.936;9.270;2022-08-19T11:47:16;24.40;61.90
46752;DHT22;32497;48.936;9.270;2022-08-19T11:52:17;24.50;61.40
46752;DHT22;32497;48.936;9.270;2022-08-19T11:57:18;24.60;62.70
46752;DHT22;32497;48.936;9.270;2022-08-19T12:02:21;24.90;60.00
46752;DHT22;32497;48.936;9.270;2022-08-19T12:07:22;25.30;59.90
46752;DHT22;32497;48.936;9.270;2022-08-19T12:12:23;25.10;60.20
46752;DHT22;32497;48.936;9.270;2022-08-19T12:17:26;24.80;62.10
46752;DHT22;32497;48.936;9.270;2022-08-19T12:22:27;24.50;60.50
46752;DHT22;32497;48.936;9.270;2022-08-19T12:27:28;24.40;62.40
46752;DHT22;32497;48.936;9.270;2022-08-19T12:32:31;24.40;61.20
46752;DHT22;32497;48.936;9.270;2022-08-19T12:37:32;24.50;59.80
46752;DHT22;32497;48.936;9.270;2022-08-19T12:42:33;24.50;59.90
46752;DHT22;32497;48.936;9.270;2022-08-19T12:47:35;24.20;66.00
46752;DHT22;32497;48.936;9.270;2022-08-19T12:52:36;23.10;73.10
46752;DHT22;32497;48.936;9.270;2022-08-19T12:57:37;22.70;74.40
46752;DHT22;32497;48.936;9.270;2022-08-19T13:02:41;22.20;76.40
46752;DHT22;32497;48.936;9.270;2022-08-19T13:07:43;21.80;76.00
46752;DHT22;32497;48.936;9.270;2022-08-19T13:12:45;21.60;81.20
46752;DHT22;32497;48.936;9.270;2022-08-19T13:17:49;21.60;81.10
46752;DHT22;32497;48.936;9.270;2022-08-19T13:22:50;21.70;82.00
46752;DHT22;32497;48.936;9.270;2022-08-19T13:27:52;21.70;82.60
46752;DHT22;32497;48.936;9.270;2022-08-19T13:32:54;21.70;83.10
46752;DHT22;32497;48.936;9.270;2022-08-19T13:37:55;21.80;83.00
46752;DHT22;32497;48.936;9.270;2022-08-19T13:42:56;21.90;83.50
46752;DHT22;32497;48.936;9.270;2022-08-19T13:47:59;22.00;83.30
46752;DHT22;32497;48.936;9.270;2022-08-19T13:53:01;22.10;83.00
46752;DHT22;32497;48.936;9.270;2022-08-19T13:58:02;22.00;82.30
46752;DHT22;32497;48.936;9.270;2022-08-19T14:03:05;22.20;82.10
46752;DHT22;32497;48.936;9.270;2022-08-19T14:08:06;22.20;82.10
46752;DHT22;32497;48.936;9.270;2022-08-19T14:13:07;21.70;82.40
46752;DHT22;32497;48.936;9.270;2022-08-19T14:18:09;21.40;82.00
46752;DHT22;32497;48.936;9.270;2022-08-19T14:23:11;21.40;82.10
46752;DHT22;32497;48.936;9.270;2022-08-19T14:28:12;21.30;81.50
46752;DHT22;32497;48.936;9.270;2022-08-19T14:33:14;21.10;83.40
46752;DHT22;32497;48.936;9.270;2022-08-19T14:38:17;20.90;84.60
46752;DHT22;32497;48.936;9.270;2022-08-19T14:43:18;20.70;86.20
46752;DHT22;32497;48.936;9.270;2022-08-19T14:48:21;20.50;86.70
46752;DHT22;32497;48.936;9.270;2022-08-19T14:53:22;20.40;87.90
46752;DHT22;32497;48.936;9.270;2022-08-19T14:58:23;20.60;87.60
46752;DHT22;32497;48.936;9.270;2022-08-19T15:03:26;20.60;87.30
46752;DHT22;32497;48.936;9.270;2022-08-19T15:08:29;20.50;87.70
46752;DHT22;32497;48.936;9.270;2022-08-19T15:13:30;20.40;87.80
46752;DHT22;32497;48.936;9.270;2022-08-19T15:18:33;20.40;87.50
46752;DHT22;32497;48.936;9.270;2022-08-19T15:23:34;20.40;87.70
46752;DHT22;32497;48.936;9.270;2022-08-19T15:28:36;20.30;87.40
46752;DHT22;32497;48.936;9.270;2022-08-19T15:33:39;20.30;87.30
46752;DHT22;32497;48.936;9.270;2022-08-19T15:38:41;20.30;87.30
46752;DHT22;32497;48.936;9.270;2022-08-19T15:43:42;20.50;86.60
46752;DHT22;32497;48.936;9.270;2022-08-19T15:48:44;20.70;85.70
46752;DHT22;32497;48.936;9.270;2022-08-19T15:53:46;21.00;84.80
46752;DHT22;32497;48.936;9.270;2022-08-19T15:58:47;21.30;83.20
46752;DHT22;32497;48.936;9.270;2022-08-19T16:03:51;21.50;82.50
46752;DHT22;32497;48.936;9.270;2022-08-19T16:08:53;22.10;81.30
46752;DHT22;32497;48.936;9.270;2022-08-19T16:13:54;22.20;80.00
46752;DHT22;32497;48.936;9.270;2022-08-19T16:18:57;22.90;78.00
46752;DHT22;32497;48.936;9.270;2022-08-19T16:24:00;23.10;77.30
46752;DHT22;32497;48.936;9.270;2022-08-19T16:29:02;23.50;76.40
46752;DHT22;32497;48.936;9.270;2022-08-19T16:34:05;23.50;74.10
46752;DHT22;32497;48.936;9.270;2022-08-19T16:39:07;23.20;74.60
46752;DHT22;32497;48.936;9.270;2022-08-19T16:44:11;23.20;74.90
46752;DHT22;32497;48.936;9.270;2022-08-19T16:49:14;22.80;75.20
46752;DHT22;32497;48.936;9.270;2022-08-19T16:54:15;22.50;75.60
46752;DHT22;32497;48.936;9.270;2022-08-19T16:59:16;22.10;77.20
46752;DHT22;32497;48.936;9.270;2022-08-19T17:04:19;22.20;76.40
46752;DHT22;32497;48.936;9.270;2022-08-19T17:09:20;22.00;77.40
46752;DHT22;32497;48.936;9.270;2022-08-19T17:14:21;21.90;77.70
46752;DHT22;32497;48.936;9.270;2022-08-19T17:19:23;21.60;78.90
46752;DHT22;32497;48.936;9.270;2022-08-19T17:24:24;21.30;79.00
46752;DHT22;32497;48.936;9.270;2022-08-19T17:29:25;21.00;80.60
46752;DHT22;32497;48.936;9.270;2022-08-19T17:34:27;20.90;80.90
46752;DHT22;32497;48.936;9.270;2022-08-19T17:39:28;20.90;81.20
46752;DHT22;32497;48.936;9.270;2022-08-19T17:44:29;20.70;81.50
46752;DHT22;32497;48.936;9.270;2022-08-19T17:49:32;20.60;81.70
46752;DHT22;32497;48.936;9.270;2022-08-19T17:54:33;20.40;82.20
46752;DHT22;32497;48.936;9.270;2022-08-19T17:59:34;20.20;82.70
46752;DHT22;32497;48.936;9.270;2022-08-19T18:04:37;20.20;83.20
46752;DHT22;32497;48.936;9.270;2022-08-19T18:09:39;20.10;83.60
46752;DHT22;32497;48.936;9.270;2022-08-19T18:14:40;20.20;83.40
46752;DHT22;32497;48.936;9.270;2022-08-19T18:19:44;20.10;83.60
46752;DHT22;32497;48.936;9.270;2022-08-19T18:24:45;20.20;83.60
46752;DHT22;32497;48.936;9.270;2022-08-19T18:29:46;20.00;83.70
46752;DHT22;32497;48.936;9.270;2022-08-19T18:34:48;19.90;84.00
46752;DHT22;32497;48.936;9.270;2022-08-19T18:39:49;19.90;84.00
46752;DHT22;32497;48.936;9.270;2022-08-19T18:44:50;20.00;83.80
46752;DHT22;32497;48.936;9.270;2022-08-19T18:49:53;19.80;84.30
46752;DHT22;32497;48.936;9.270;2022-08-19T18:54:54;19.70;84.70
46752;DHT22;32497;48.936;9.270;2022-08-19T18:59:55;19.70;84.60
46752;DHT22;32497;48.936;9.270;2022-08-19T19:04:57;19.70;84.70
46752;DHT22;32497;48.936;9.270;2022-08-19T19:09:58;19.60;85.10
46752;DHT22;32497;48.936;9.270;2022-08-19T19:14:59;19.60;84.90
46752;DHT22;32497;48.936;9.270;2022-08-19T19:20:02;19.60;85.00
46752;DHT22;32497;48.936;9.270;2022-08-19T19:25:04;19.60;84.60
46752;DHT22;32497;48.936;9.270;2022-08-19T19:30:06;19.60;84.50
46752;DHT22;32497;48.936;9.270;2022-08-19T19:35:09;19.60;84.30
46752;DHT22;32497;48.936;9.270;2022-08-19T19:40:10;19.60;84.30
46752;DHT22;32497;48.936;9.270;2022-08-19T19:45:11;19.70;83.80
46752;DHT22;32497;48.936;9.270;2022-08-19T19:50:13;19.70;83.60
46752;DHT22;32497;48.936;9.270;2022-08-19T19:55:15;19.80;83.60
46752;DHT22;32497;48.936;9.270;2022-08-19T20:00:16;19.90;83.40
46752;DHT22;32497;48.936;9.270;2022-08-19T20:05:19;19.90;83.30
46752;DHT22;32497;48.936;9.270;2022-08-19T20:10:20;19.70;83.70
46752;DHT22;32497;48.936;9.270;2022-08-19T20:15:22;19.80;83.50
46752;DHT22;32497;48.936;9.270;2022-08-19T20:20:24;20.00;83.30
46752;DHT22;32497;48.936;9.270;2022-08-19T20:25:25;20.10;82.90
46752;DHT22;32497;48.936;9.270;2022-08-19T20:30:27;20.10;82.90
46752;DHT22;32497;48.936;9.270;2022-08-19T20:35:30;20.10;82.90
46752;DHT22;32497;48.936;9.270;2022-08-19T20:40:31;20.20;82.80
46752;DHT22;32497;48.936;9.270;2022-08-19T20:45:32;20.20;83.10
46752;DHT22;32497;48.936;9.270;2022-08-19T20:50:35;20.10;83.50
46752;DHT22;32497;48.936;9.270;2022-08-19T20:55:36;20.10;83.70
46752;DHT22;32497;48.936;9.270;2022-08-19T21:00:37;19.90;84.30
46752;DHT22;32497;48.936;9.270;2022-08-19T21:05:40;19.80;84.60
46752;DHT22;32497;48.936;9.270;2022-08-19T21:10:41;19.70;84.40
46752;DHT22;32497;48.936;9.270;2022-08-19T21:15:42;19.90;83.60
46752;DHT22;32497;48.936;9.270;2022-08-19T21:20:45;20.00;83.00
46752;DHT22;32497;48.936;9.270;2022-08-19T21:25:46;20.10;82.40
46752;DHT22;32497;48.936;9.270;2022-08-19T21:30:47;20.20;82.40
46752;DHT22;32497;48.936;9.270;2022-08-19T21:35:50;20.20;81.80
46752;DHT22;32497;48.936;9.270;2022-08-19T21:40:51;20.20;81.60
46752;DHT22;32497;48.936;9.270;2022-08-19T21:45:52;20.20;80.60
46752;DHT22;32497;48.936;9.270;2022-08-19T21:50:54;20.30;78.50
46752;DHT22;32497;48.936;9.270;2022-08-19T21:55:55;20.40;77.30
46752;DHT22;32497;48.936;9.270;2022-08-19T22:00:56;20.60;76.30
46752;DHT22;32497;48.936;9.270;2022-08-19T22:05:59;20.60;75.00
46752;DHT22;32497;48.936;9.270;2022-08-19T22:11:00;20.80;73.90
46752;DHT22;32497;48.936;9.270;2022-08-19T22:16:02;20.80;72.50
46752;DHT22;32497;48.936;9.270;2022-08-19T22:21:05;20.90;71.00
46752;DHT22;32497;48.936;9.270;2022-08-19T22:26:06;20.90;71.00
46752;DHT22;32497;48.936;9.270;2022-08-19T22:31:07;21.10;69.70
46752;DHT22;32497;48.936;9.270;2022-08-19T22:36:10;21.00;68.50
46752;DHT22;32497;48.936;9.270;2022-08-19T22:41:11;21.00;68.00
46752;DHT22;32497;48.936;9.270;2022-08-19T22:46:12;20.90;68.20
46752;DHT22;32497;48.936;9.270;2022-08-19T22:51:15;20.90;68.00
46752;DHT22;32497;48.936;9.270;2022-08-19T22:56:17;20.90;68.00
46752;DHT22;32497;48.936;9.270;2022-08-19T23:01:20;20.70;68.50
46752;DHT22;32497;48.936;9.270;2022-08-19T23:06:23;20.60;69.00
46752;DHT22;32497;48.936;9.270;2022-08-19T23:11:24;20.50;69.20
46752;DHT22;32497;48.936;9.270;2022-08-19T23:16:25;20.40;69.50
46752;DHT22;32497;48.936;9.270;2022-08-19T23:21:28;20.50;69.60
46752;DHT22;32497;48.936;9.270;2022-08-19T23:26:29;20.40;70.30
46752;DHT22;32497;48.936;9.270;2022-08-19T23:31:30;20.30;70.70
46752;DHT22;32497;48.936;9.270;2022-08-19T23:36:32;20.30;70.70
46752;DHT22;32497;48.936;9.270;2022-08-19T23:41:33;20.30;71.10
46752;DHT22;32497;48.936;9.270;2022-08-19T23:46:34;20.10;72.10
46752;DHT22;32497;48.936;9.270;2022-08-19T23:51:37;20.00;72.60
46752;DHT22;32497;48.936;9.270;2022-08-19T23:56:38;20.00;72.60
